< < Back
Terminal Aerodrome Forecast


Current Version              Previous Versions:   1  2  3  4  5  6  7  8  9  

Terminal Aerodrome Forecast

241
FTUS44 KBMX 270520
TAFANB
TAF
KANB 270520Z 2706/2806 03010G15KT P6SM SCT020 BKN250
     FM270900 04005KT P6SM BKN250
     FM271500 03010KT P6SM SCT250=

Latest METAR

024
SAUS70 KWBC 271156
MTRANB
METAR KANB 271153Z AUTO 04005KT 10SM CLR 12/08 A2990 RMK AO2 SLP122
T01170078 10133 20106 53018


USA.gov is the U.S. government's official web portal to all federal, state and local government web resources and services.